Louis Armstrong New Orleans International Airport
KMSY : now visible

Airfield :











YOU CAN JOIN US ON...

 
LOGIN :

Register | Disclaimer

   EN    FR    IT 

 









Legend :    VFR   Marginal VFR   IFR   Intensive IFR   Very Intensive IFR
Visi :
Ceiling :
>= 8 km
>= 3000ft
5 to 8 km
1000 to 3000 ft
1500m to 5 km
500 to 1000 ft
800 to 1500m
200 to 500 ft
< 800m
< 200 ft
Symbols :   Thunderstorms  Fog  Heavy snow  Heavy precipitations  Wind > 20 kt






- Airport Elevation : 4 ft
- IATA code : MSY


KMSY - Louis Armstrong New Orleans International

CURRENT METAR :
  • 281153Z 00000KT 5SM BR MIFG FEW040 16/16 A2999 RMK AO2 SLP158 T01610156 10178 20156 53006

EXPIRED METARs :
  • 281053Z 29005KT 6SM BR BKN039 BKN060 17/17 A2998 RMK AO2 SLP154 T01720167
  • 280953Z 27004KT 8SM FEW025 BKN033 17/17 A2998 RMK AO2 SLP153 T01720167

TAF KMSY
Valid from the 28 at 12:00 until the 29 at 18:00 UTC


281148Z 2812/2918 29005KT 6SM BR BKN040 BKN060
TEMPO 2812/2815 1SM BR SCT003 BKN012
FM281500 VRB03KT P6SM BKN045
FM291400 15008KT 6SM -SHRA BR BKN015
FM291700 17011G21KT 6SM -SHRA BR BKN008
KZHU FIR / North America



MET'MAP, your aeronautical weather chart ! - Copyright ORBIFLY December 2007 - Disclaimer

ORBIFLY MET'MAP TEAM :

Programming & Development : Alexandra Zaïnal
Original concept : Baudouin d'Aumeries
Technical & hardware support : Manuel Goepfert
Assistance : Marc-Olivier Méhu




SOURCES & CREDITS :

   NOAA       Earth
Advisory